createdAt,value
2018-08-13T00:00:25.718Z,20.69
2018-08-13T00:01:26.192Z,20.66
2018-08-13T00:02:26.672Z,20.63
2018-08-13T00:03:27.142Z,20.60
2018-08-13T00:04:27.616Z,20.55
2018-08-13T00:05:28.094Z,20.50
2018-08-13T00:06:28.569Z,20.44
2018-08-13T00:07:29.042Z,20.37
2018-08-13T00:08:29.517Z,20.31
2018-08-13T00:09:29.994Z,20.26
2018-08-13T00:10:30.468Z,20.19
2018-08-13T00:11:30.944Z,20.12
2018-08-13T00:12:31.418Z,20.04
2018-08-13T00:13:31.897Z,19.96
2018-08-13T00:14:32.368Z,19.88
2018-08-13T00:15:32.844Z,19.79
2018-08-13T00:16:33.321Z,19.70
2018-08-13T00:17:33.810Z,19.62
2018-08-13T00:18:34.472Z,19.55
2018-08-13T00:19:34.749Z,19.47
2018-08-13T00:20:35.218Z,19.40
2018-08-13T00:21:35.694Z,19.33
2018-08-13T00:22:36.169Z,19.26
2018-08-13T00:23:36.642Z,19.19
2018-08-13T00:24:37.116Z,19.12
2018-08-13T00:25:37.591Z,19.06
2018-08-13T00:26:38.068Z,18.99
2018-08-13T00:27:38.540Z,18.93
2018-08-13T00:28:39.015Z,18.87
2018-08-13T00:29:39.487Z,18.81
2018-08-13T00:30:39.960Z,18.74
2018-08-13T00:31:40.435Z,18.68
2018-08-13T00:32:40.907Z,18.63
2018-08-13T00:33:41.384Z,18.58
2018-08-13T00:34:41.855Z,18.54
2018-08-13T00:35:42.329Z,18.48
2018-08-13T00:36:42.802Z,18.43
2018-08-13T00:37:43.276Z,18.38
2018-08-13T00:38:43.749Z,18.33
2018-08-13T00:39:44.225Z,18.28
2018-08-13T00:40:44.695Z,18.24
2018-08-13T00:41:45.169Z,18.20
2018-08-13T00:42:45.669Z,18.15
2018-08-13T00:43:46.112Z,18.11
2018-08-13T00:44:46.584Z,18.07
2018-08-13T00:45:47.059Z,18.02
2018-08-13T00:46:47.531Z,17.98
2018-08-13T00:47:48.028Z,17.94
2018-08-13T00:48:48.475Z,17.90
2018-08-13T00:49:48.953Z,17.86
2018-08-13T00:50:49.420Z,17.82
2018-08-13T00:51:49.893Z,17.79
2018-08-13T00:52:50.364Z,17.74
2018-08-13T00:53:50.835Z,17.72
2018-08-13T00:54:51.312Z,17.68
2018-08-13T00:55:51.780Z,17.64
2018-08-13T00:56:52.255Z,17.61
2018-08-13T00:57:52.724Z,17.58
2018-08-13T00:58:53.198Z,17.54
2018-08-13T00:59:53.668Z,17.50
2018-08-13T01:00:54.139Z,17.47
2018-08-13T01:01:54.610Z,17.45
2018-08-13T01:02:55.084Z,17.42
2018-08-13T01:03:55.553Z,17.38
2018-08-13T01:04:56.026Z,17.36
2018-08-13T01:05:56.501Z,17.33
2018-08-13T01:06:56.972Z,17.29
2018-08-13T01:07:57.438Z,17.26
2018-08-13T01:08:57.912Z,17.23
2018-08-13T01:09:58.383Z,17.19
2018-08-13T01:10:58.854Z,17.17
2018-08-13T01:11:59.325Z,17.14
2018-08-13T01:12:59.796Z,17.12
2018-08-13T01:14:00.266Z,17.11
2018-08-13T01:15:00.741Z,17.11
2018-08-13T01:16:01.209Z,17.13
2018-08-13T01:17:01.683Z,17.16
2018-08-13T01:18:02.152Z,17.21
2018-08-13T01:19:02.624Z,17.27
2018-08-13T01:20:03.096Z,17.35
2018-08-13T01:21:03.565Z,17.46
2018-08-13T01:22:04.037Z,17.57
2018-08-13T01:23:04.509Z,17.69
2018-08-13T01:24:04.976Z,17.81
2018-08-13T01:25:05.448Z,17.95
2018-08-13T01:26:05.921Z,18.11
2018-08-13T01:27:06.392Z,18.25
2018-08-13T01:28:06.868Z,18.40
2018-08-13T01:29:07.336Z,18.57
2018-08-13T01:30:07.809Z,18.73
2018-08-13T01:31:08.282Z,18.88
2018-08-13T01:32:08.751Z,19.04
2018-08-13T01:33:09.225Z,19.19
2018-08-13T01:34:09.700Z,19.35
2018-08-13T01:35:10.170Z,19.50
2018-08-13T01:36:10.643Z,19.62
2018-08-13T01:37:11.117Z,19.76
2018-08-13T01:38:11.592Z,19.87
2018-08-13T01:39:12.065Z,19.94
2018-08-13T01:40:12.541Z,20.00
2018-08-13T01:41:13.013Z,20.04
2018-08-13T01:42:13.489Z,20.06
2018-08-13T01:43:13.963Z,20.05
2018-08-13T01:44:14.436Z,20.02
2018-08-13T01:45:14.913Z,19.98
2018-08-13T01:46:15.388Z,19.95
2018-08-13T01:47:15.862Z,19.90
2018-08-13T01:48:16.336Z,19.84
2018-08-13T01:49:16.812Z,19.76
2018-08-13T01:50:17.285Z,19.69
2018-08-13T01:51:17.763Z,19.61
2018-08-13T01:52:18.236Z,19.54
2018-08-13T01:53:18.711Z,19.45
2018-08-13T01:54:19.188Z,19.36
2018-08-13T01:55:19.663Z,19.28
2018-08-13T01:56:20.137Z,19.18
2018-08-13T01:57:20.615Z,19.09
2018-08-13T01:58:21.088Z,18.99
2018-08-13T01:59:21.565Z,18.90
2018-08-13T02:00:22.038Z,18.79
2018-08-13T02:01:22.525Z,18.71
2018-08-13T02:02:22.985Z,18.63
2018-08-13T02:03:23.461Z,18.55
2018-08-13T02:04:23.933Z,18.47
2018-08-13T02:05:24.408Z,18.39
2018-08-13T02:06:24.887Z,18.31
2018-08-13T02:07:25.356Z,18.23
2018-08-13T02:08:25.830Z,18.15
2018-08-13T02:09:26.306Z,18.08
2018-08-13T02:10:26.782Z,18.00
2018-08-13T02:11:27.252Z,17.92
2018-08-13T02:12:27.727Z,17.85
2018-08-13T02:13:28.199Z,17.78
2018-08-13T02:14:28.670Z,17.72
2018-08-13T02:15:29.145Z,17.66
2018-08-13T02:16:29.615Z,17.59
2018-08-13T02:17:30.089Z,17.53
2018-08-13T02:18:30.563Z,17.47
2018-08-13T02:19:31.037Z,17.41
2018-08-13T02:20:31.509Z,17.36
2018-08-13T02:21:31.979Z,17.31
2018-08-13T02:22:32.454Z,17.25
2018-08-13T02:23:32.926Z,17.21
2018-08-13T02:24:33.401Z,17.16
2018-08-13T02:25:33.870Z,17.11
2018-08-13T02:26:34.342Z,17.07
2018-08-13T02:27:34.817Z,17.02
2018-08-13T02:28:35.288Z,16.98
2018-08-13T02:29:35.759Z,16.93
2018-08-13T02:30:36.230Z,16.89
2018-08-13T02:31:36.702Z,16.85
2018-08-13T02:32:37.173Z,16.80
2018-08-13T02:33:37.646Z,16.77
2018-08-13T02:34:38.117Z,16.73
2018-08-13T02:35:38.591Z,16.69
2018-08-13T02:36:39.060Z,16.65
2018-08-13T02:37:39.528Z,16.61
2018-08-13T02:38:40.006Z,16.59
2018-08-13T02:39:40.473Z,16.56
2018-08-13T02:40:40.943Z,16.54
2018-08-13T02:41:41.414Z,16.54
2018-08-13T02:42:41.883Z,16.55
2018-08-13T02:43:42.356Z,16.58
2018-08-13T02:44:42.830Z,16.64
2018-08-13T02:45:43.296Z,16.71
2018-08-13T02:46:43.771Z,16.80
2018-08-13T02:47:44.240Z,16.91
2018-08-13T02:48:44.718Z,17.01
2018-08-13T02:49:45.182Z,17.13
2018-08-13T02:50:45.654Z,17.27
2018-08-13T02:51:46.144Z,17.40
2018-08-13T02:52:46.644Z,17.54
2018-08-13T02:53:47.067Z,17.69
2018-08-13T02:54:47.538Z,17.85
2018-08-13T02:55:48.011Z,18.02
2018-08-13T02:56:48.481Z,18.18
2018-08-13T02:57:48.954Z,18.33
2018-08-13T02:58:49.428Z,18.49
2018-08-13T02:59:49.904Z,18.64
2018-08-13T03:00:50.370Z,18.78
2018-08-13T03:01:50.845Z,18.92
2018-08-13T03:02:51.318Z,19.06
2018-08-13T03:03:51.791Z,19.16
2018-08-13T03:04:52.265Z,19.30
2018-08-13T03:05:52.747Z,19.39
2018-08-13T03:06:53.212Z,19.47
2018-08-13T03:07:53.690Z,19.52
2018-08-13T03:08:54.160Z,19.55
2018-08-13T03:09:54.634Z,19.55
2018-08-13T03:10:55.109Z,19.56
2018-08-13T03:11:55.585Z,19.54
2018-08-13T03:12:56.059Z,19.49
2018-08-13T03:13:56.533Z,19.45
2018-08-13T03:14:57.011Z,19.39
2018-08-13T03:15:57.484Z,19.33
2018-08-13T03:16:57.961Z,19.25
2018-08-13T03:17:58.435Z,19.16
2018-08-13T03:18:58.909Z,19.08
2018-08-13T03:19:59.386Z,18.99
2018-08-13T03:20:59.862Z,18.91
2018-08-13T03:22:00.338Z,18.82
2018-08-13T03:23:00.809Z,18.72
2018-08-13T03:24:01.285Z,18.63
2018-08-13T03:25:01.761Z,18.53
2018-08-13T03:26:02.234Z,18.43
2018-08-13T03:27:02.709Z,18.33
2018-08-13T03:28:03.184Z,18.23
2018-08-13T03:29:03.659Z,18.14
2018-08-13T03:30:04.135Z,18.05
2018-08-13T03:31:04.606Z,17.95
2018-08-13T03:32:05.085Z,17.86
2018-08-13T03:33:05.552Z,17.77
2018-08-13T03:34:06.027Z,17.69
2018-08-13T03:35:06.507Z,17.61
2018-08-13T03:36:06.975Z,17.52
2018-08-13T03:37:07.448Z,17.44
2018-08-13T03:38:07.921Z,17.36
2018-08-13T03:39:08.395Z,17.28
2018-08-13T03:40:08.869Z,17.20
2018-08-13T03:41:09.344Z,17.12
2018-08-13T03:42:09.814Z,17.06
2018-08-13T03:43:10.287Z,16.99
2018-08-13T03:44:10.762Z,16.93
2018-08-13T03:45:11.435Z,16.86
2018-08-13T03:46:11.706Z,16.79
2018-08-13T03:47:12.176Z,16.73
2018-08-13T03:48:12.650Z,16.67
2018-08-13T03:49:13.119Z,16.61
2018-08-13T03:50:13.593Z,16.55
2018-08-13T03:51:14.069Z,16.49
2018-08-13T03:52:14.537Z,16.44
2018-08-13T03:53:15.008Z,16.39
2018-08-13T03:54:15.479Z,16.34
2018-08-13T03:55:15.952Z,16.30
2018-08-13T03:56:16.425Z,16.25
2018-08-13T03:57:16.897Z,16.20
2018-08-13T03:58:17.366Z,16.16
2018-08-13T03:59:17.836Z,16.12
2018-08-13T04:00:18.308Z,16.10
2018-08-13T04:01:18.781Z,16.10
2018-08-13T04:02:19.249Z,16.10
2018-08-13T04:03:19.721Z,16.13
2018-08-13T04:04:20.192Z,16.17
2018-08-13T04:05:20.663Z,16.24
2018-08-13T04:06:21.134Z,16.33
2018-08-13T04:07:21.604Z,16.43
2018-08-13T04:08:22.077Z,16.53
2018-08-13T04:09:22.546Z,16.63
2018-08-13T04:10:23.019Z,16.75
2018-08-13T04:11:23.488Z,16.88
2018-08-13T04:12:23.962Z,17.03
2018-08-13T04:13:24.432Z,17.17
2018-08-13T04:14:24.903Z,17.32
2018-08-13T04:15:25.376Z,17.48
2018-08-13T04:16:25.846Z,17.65
2018-08-13T04:17:26.318Z,17.79
2018-08-13T04:18:26.789Z,17.95
2018-08-13T04:19:27.263Z,18.11
2018-08-13T04:20:27.737Z,18.25
2018-08-13T04:21:28.212Z,18.38
2018-08-13T04:22:28.679Z,18.52
2018-08-13T04:23:29.153Z,18.64
2018-08-13T04:24:29.626Z,18.76
2018-08-13T04:25:30.099Z,18.88
2018-08-13T04:26:30.573Z,18.99
2018-08-13T04:27:31.048Z,19.09
2018-08-13T04:28:31.523Z,19.17
2018-08-13T04:29:31.995Z,19.20
2018-08-13T04:30:32.469Z,19.22
2018-08-13T04:31:32.946Z,19.22
2018-08-13T04:32:33.461Z,19.22
2018-08-13T04:33:33.894Z,19.17
2018-08-13T04:34:34.371Z,19.13
2018-08-13T04:35:34.846Z,19.08
2018-08-13T04:36:35.318Z,19.03
2018-08-13T04:37:35.793Z,18.96
2018-08-13T04:38:36.288Z,18.89
2018-08-13T04:39:36.746Z,18.81
2018-08-13T04:40:37.221Z,18.72
2018-08-13T04:41:37.693Z,18.65
2018-08-13T04:42:38.169Z,18.58
2018-08-13T04:43:38.650Z,18.49
2018-08-13T04:44:39.119Z,18.41
2018-08-13T04:45:39.593Z,18.32
2018-08-13T04:46:40.068Z,18.22
2018-08-13T04:47:40.545Z,18.13
2018-08-13T04:48:41.017Z,18.05
2018-08-13T04:49:41.492Z,17.96
2018-08-13T04:50:41.965Z,17.88
2018-08-13T04:51:42.440Z,17.80
2018-08-13T04:52:42.914Z,17.72
2018-08-13T04:53:43.408Z,17.64
2018-08-13T04:54:43.862Z,17.57
2018-08-13T04:55:44.334Z,17.50
2018-08-13T04:56:44.861Z,17.43
2018-08-13T04:57:45.282Z,17.36
2018-08-13T04:58:45.755Z,17.32
2018-08-13T04:59:46.230Z,17.25
2018-08-13T05:00:46.701Z,17.19
2018-08-13T05:01:47.175Z,17.12
2018-08-13T05:02:47.662Z,17.06
2018-08-13T05:03:48.124Z,17.00
2018-08-13T05:04:48.592Z,16.95
2018-08-13T05:05:49.065Z,16.90
2018-08-13T05:06:49.538Z,16.84
2018-08-13T05:07:50.013Z,16.81
2018-08-13T05:08:50.483Z,16.75
2018-08-13T05:09:50.955Z,16.71
2018-08-13T05:10:51.428Z,16.67
2018-08-13T05:11:51.898Z,16.64
2018-08-13T05:12:52.374Z,16.61
2018-08-13T05:13:52.842Z,16.58
2018-08-13T05:14:53.314Z,16.55
2018-08-13T05:15:53.785Z,16.51
2018-08-13T05:16:54.260Z,16.49
2018-08-13T05:17:54.727Z,16.46
2018-08-13T05:18:55.199Z,16.44
2018-08-13T05:19:55.671Z,16.44
2018-08-13T05:20:56.143Z,16.44
2018-08-13T05:21:56.615Z,16.46
2018-08-13T05:22:57.082Z,16.49
2018-08-13T05:23:57.556Z,16.55
2018-08-13T05:24:58.028Z,16.62
2018-08-13T05:25:58.498Z,16.71
2018-08-13T05:26:58.968Z,16.82
2018-08-13T05:27:59.440Z,16.96
2018-08-13T05:28:59.912Z,17.07
2018-08-13T05:30:00.451Z,17.21
2018-08-13T05:31:00.854Z,17.35
2018-08-13T05:32:01.330Z,17.50
2018-08-13T05:33:01.798Z,17.67
2018-08-13T05:34:02.267Z,17.85
2018-08-13T05:35:02.742Z,18.05
2018-08-13T05:36:03.211Z,18.22
2018-08-13T05:37:03.686Z,18.39
2018-08-13T05:38:04.156Z,18.56
2018-08-13T05:39:04.630Z,18.72
2018-08-13T05:40:05.102Z,18.90
2018-08-13T05:41:05.575Z,19.06
2018-08-13T05:42:06.050Z,19.21
2018-08-13T05:43:06.523Z,19.37
2018-08-13T05:44:06.995Z,19.50
2018-08-13T05:45:07.473Z,19.63
2018-08-13T05:46:07.946Z,19.77
2018-08-13T05:47:08.416Z,19.86
2018-08-13T05:48:08.898Z,19.92
2018-08-13T05:49:09.366Z,19.96
2018-08-13T05:50:09.844Z,19.99
2018-08-13T05:51:10.316Z,20.01
2018-08-13T05:52:10.789Z,20.01
2018-08-13T05:53:11.272Z,19.99
2018-08-13T05:54:11.741Z,19.98
2018-08-13T05:55:12.216Z,19.95
2018-08-13T05:56:12.691Z,19.92
2018-08-13T05:57:13.168Z,19.87
2018-08-13T05:58:13.649Z,19.83
2018-08-13T05:59:14.117Z,19.77
2018-08-13T06:00:14.595Z,19.72
2018-08-13T06:01:15.070Z,19.67
2018-08-13T06:02:15.546Z,19.62
2018-08-13T06:03:16.020Z,19.55
2018-08-13T06:04:16.496Z,19.48
2018-08-13T06:05:16.973Z,19.41
2018-08-13T06:06:17.445Z,19.34
2018-08-13T06:07:17.921Z,19.26
2018-08-13T06:08:18.395Z,19.19
2018-08-13T06:09:18.871Z,19.12
2018-08-13T06:10:19.346Z,19.06
2018-08-13T06:11:19.964Z,19.00
2018-08-13T06:12:20.296Z,18.95
2018-08-13T06:13:20.770Z,18.90
2018-08-13T06:14:21.243Z,18.85
2018-08-13T06:15:21.719Z,18.79
2018-08-13T06:16:22.193Z,18.74
2018-08-13T06:17:22.680Z,18.69
2018-08-13T06:18:23.146Z,18.65
2018-08-13T06:19:23.617Z,18.62
2018-08-13T06:20:24.089Z,18.57
2018-08-13T06:21:24.562Z,18.53
2018-08-13T06:22:25.072Z,18.48
2018-08-13T06:23:25.510Z,18.44
2018-08-13T06:24:26.005Z,18.41
2018-08-13T06:25:26.460Z,18.38
2018-08-13T06:26:26.931Z,18.35
2018-08-13T06:27:27.405Z,18.33
2018-08-13T06:28:28.287Z,18.31
2018-08-13T06:29:28.351Z,18.28
2018-08-13T06:31:29.297Z,18.24
2018-08-13T06:32:29.772Z,18.22
2018-08-13T06:33:30.249Z,18.21
2018-08-13T06:34:30.724Z,18.19
2018-08-13T06:35:31.190Z,18.18
2018-08-13T06:36:31.662Z,18.17
2018-08-13T06:37:32.136Z,18.16
2018-08-13T06:38:32.606Z,18.14
2018-08-13T06:39:33.081Z,18.14
2018-08-13T06:40:33.554Z,18.14
2018-08-13T06:41:34.029Z,18.13
2018-08-13T06:42:34.498Z,18.13
2018-08-13T06:43:34.971Z,18.12
2018-08-13T06:44:35.443Z,18.12
2018-08-13T06:45:35.916Z,18.12
2018-08-13T06:46:36.388Z,18.12
2018-08-13T06:47:36.861Z,18.12
2018-08-13T06:48:37.333Z,18.13
2018-08-13T06:49:37.805Z,18.13
2018-08-13T06:50:38.277Z,18.14
2018-08-13T06:51:38.748Z,18.16
2018-08-13T06:52:39.227Z,18.17
2018-08-13T06:53:39.694Z,18.18
2018-08-13T06:54:40.167Z,18.20
2018-08-13T06:55:40.639Z,18.22
2018-08-13T06:56:41.112Z,18.23
2018-08-13T06:57:41.584Z,18.26
2018-08-13T06:58:42.058Z,18.29
2018-08-13T06:59:42.528Z,18.32
2018-08-13T07:00:43.027Z,18.35
2018-08-13T07:01:43.474Z,18.38
2018-08-13T07:02:43.944Z,18.42
2018-08-13T07:03:44.424Z,18.45
2018-08-13T07:04:44.895Z,18.50
2018-08-13T07:05:45.363Z,18.55
2018-08-13T07:06:45.839Z,18.60
2018-08-13T07:07:46.312Z,18.64
2018-08-13T07:08:46.784Z,18.70
2018-08-13T07:09:47.256Z,18.76
2018-08-13T07:10:47.729Z,18.84
2018-08-13T07:11:48.203Z,18.91
2018-08-13T07:12:48.679Z,18.98
2018-08-13T07:13:49.154Z,19.07
2018-08-13T07:14:49.624Z,19.16
2018-08-13T07:15:50.162Z,19.26
2018-08-13T07:16:50.574Z,19.37
2018-08-13T07:17:51.048Z,19.48
2018-08-13T07:18:51.523Z,19.61
2018-08-13T07:19:52.004Z,19.76
2018-08-13T07:20:52.475Z,19.95
2018-08-13T07:21:52.951Z,20.18
2018-08-13T07:22:53.427Z,20.45
2018-08-13T07:23:53.904Z,20.78
2018-08-13T07:24:54.385Z,21.14
2018-08-13T07:25:54.861Z,21.53
2018-08-13T07:26:55.338Z,21.95
2018-08-13T07:27:55.833Z,22.40
2018-08-13T07:28:56.296Z,22.85
2018-08-13T07:29:56.776Z,23.31
2018-08-13T07:30:57.255Z,23.77
2018-08-13T07:31:57.734Z,24.20
2018-08-13T07:32:58.215Z,24.61
2018-08-13T07:33:58.700Z,25.00
2018-08-13T07:34:59.176Z,25.37
2018-08-13T07:35:59.660Z,25.73
2018-08-13T07:37:00.140Z,26.06
2018-08-13T07:38:00.624Z,26.39
2018-08-13T07:39:01.138Z,26.68
2018-08-13T07:40:01.589Z,26.97
2018-08-13T07:41:02.072Z,27.24
2018-08-13T07:42:02.554Z,27.50
2018-08-13T07:43:03.038Z,27.76
2018-08-13T07:44:03.522Z,28.00
2018-08-13T07:45:04.008Z,28.24
2018-08-13T07:46:04.491Z,28.45
2018-08-13T07:47:04.975Z,28.67
2018-08-13T07:48:05.461Z,28.87
2018-08-13T07:49:05.953Z,29.06
2018-08-13T07:50:06.434Z,29.26
2018-08-13T07:51:06.928Z,29.45
2018-08-13T07:52:07.405Z,29.63
2018-08-13T07:53:07.893Z,29.82
2018-08-13T07:54:08.378Z,30.00
2018-08-13T07:55:08.868Z,30.18
2018-08-13T07:56:09.352Z,30.35
2018-08-13T07:57:09.842Z,30.53
2018-08-13T07:58:10.381Z,30.70
2018-08-13T07:59:10.817Z,30.88
2018-08-13T08:00:11.306Z,31.05
2018-08-13T08:01:11.795Z,31.22
2018-08-13T08:02:12.286Z,31.38
2018-08-13T08:03:12.773Z,31.54
2018-08-13T08:04:13.261Z,31.69
2018-08-13T08:05:13.751Z,31.84
2018-08-13T08:06:14.242Z,31.98
2018-08-13T08:07:14.733Z,32.11
2018-08-13T08:08:15.226Z,32.24
2018-08-13T08:09:15.798Z,32.36
2018-08-13T08:10:16.207Z,32.49
2018-08-13T08:11:16.698Z,32.60
2018-08-13T08:12:17.186Z,32.72
2018-08-13T08:13:17.676Z,32.84
2018-08-13T08:14:18.170Z,32.94
2018-08-13T08:15:18.660Z,33.05
2018-08-13T08:16:19.153Z,33.17
2018-08-13T08:17:19.645Z,33.27
2018-08-13T08:18:20.139Z,33.37
2018-08-13T08:19:20.629Z,33.47
2018-08-13T08:20:21.124Z,33.55
2018-08-13T08:21:21.677Z,33.59
2018-08-13T08:22:22.112Z,33.52
2018-08-13T08:23:22.602Z,33.37
2018-08-13T08:24:23.095Z,33.14
2018-08-13T08:25:23.589Z,32.88
2018-08-13T08:26:24.084Z,32.67
2018-08-13T08:27:24.575Z,32.45
2018-08-13T08:28:25.065Z,32.12
2018-08-13T08:29:25.600Z,31.72
2018-08-13T08:30:26.054Z,31.25
2018-08-13T08:31:26.543Z,30.76
2018-08-13T08:32:27.034Z,30.29
2018-08-13T08:33:27.524Z,29.92
2018-08-13T08:34:28.015Z,29.61
2018-08-13T08:35:28.505Z,29.43
2018-08-13T08:36:28.995Z,29.22
2018-08-13T08:37:29.484Z,28.96
2018-08-13T08:38:29.974Z,28.70
2018-08-13T08:39:30.462Z,28.63
2018-08-13T08:40:31.005Z,28.67
2018-08-13T08:41:31.441Z,28.79
2018-08-13T08:42:31.928Z,29.04
2018-08-13T08:43:32.419Z,29.38
2018-08-13T08:44:32.907Z,29.72
2018-08-13T08:45:33.397Z,30.08
2018-08-13T08:46:33.887Z,30.44
2018-08-13T08:47:34.376Z,30.73
2018-08-13T08:48:34.868Z,30.81
2018-08-13T08:49:35.359Z,30.90
2018-08-13T08:50:35.846Z,31.08
2018-08-13T08:51:36.334Z,31.28
2018-08-13T08:52:36.828Z,31.48
2018-08-13T08:53:37.345Z,31.67
2018-08-13T08:54:37.806Z,31.83
2018-08-13T08:55:38.295Z,31.97
2018-08-13T08:56:38.787Z,32.03
2018-08-13T08:57:39.273Z,32.00
2018-08-13T08:58:39.765Z,31.90
2018-08-13T08:59:40.254Z,31.74
2018-08-13T09:00:40.794Z,31.53
2018-08-13T09:01:41.229Z,31.25
2018-08-13T09:02:41.716Z,30.94
2018-08-13T09:03:42.204Z,30.64
2018-08-13T09:04:42.691Z,30.33
2018-08-13T09:05:43.178Z,30.04
2018-08-13T09:06:43.665Z,29.74
2018-08-13T09:07:44.156Z,29.44
2018-08-13T09:08:44.639Z,29.13
2018-08-13T09:09:45.124Z,28.85
2018-08-13T09:10:45.610Z,28.59
2018-08-13T09:11:46.095Z,28.33
2018-08-13T09:12:46.601Z,28.10
2018-08-13T09:13:47.065Z,27.88
2018-08-13T09:14:47.550Z,27.67
2018-08-13T09:15:48.034Z,27.47
2018-08-13T09:16:48.520Z,27.28
2018-08-13T09:17:49.002Z,27.10
2018-08-13T09:18:49.540Z,26.95
2018-08-13T09:19:49.982Z,26.80
2018-08-13T09:20:50.453Z,26.67
2018-08-13T09:21:50.935Z,26.54
2018-08-13T09:22:51.419Z,26.42
2018-08-13T09:23:51.902Z,26.31
2018-08-13T09:24:52.384Z,26.20
2018-08-13T09:25:52.868Z,26.10
2018-08-13T09:26:53.350Z,26.01
2018-08-13T09:27:53.829Z,25.92
2018-08-13T09:28:54.313Z,25.85
2018-08-13T09:29:54.797Z,25.79
2018-08-13T09:30:55.276Z,25.73
2018-08-13T09:31:55.761Z,25.66
2018-08-13T09:32:56.442Z,25.59
2018-08-13T09:33:56.775Z,25.53
2018-08-13T09:34:57.204Z,25.48
2018-08-13T09:35:57.684Z,25.41
2018-08-13T09:36:58.165Z,25.34
2018-08-13T09:37:58.648Z,25.27
2018-08-13T09:38:59.131Z,25.20
2018-08-13T09:39:59.608Z,25.14
2018-08-13T09:41:00.090Z,25.08
2018-08-13T09:42:00.572Z,25.03
2018-08-13T09:43:01.051Z,24.97
2018-08-13T09:44:01.531Z,24.92
2018-08-13T09:45:02.011Z,24.87
2018-08-13T09:46:02.494Z,24.82
2018-08-13T09:47:02.969Z,24.76
2018-08-13T09:49:03.931Z,24.67
2018-08-13T09:50:04.411Z,24.62
2018-08-13T09:51:04.892Z,24.58
2018-08-13T09:52:05.368Z,24.54
2018-08-13T09:53:05.849Z,24.51
2018-08-13T09:54:06.333Z,24.46
2018-08-13T09:55:06.808Z,24.41
2018-08-13T09:56:07.288Z,24.37
2018-08-13T09:57:07.804Z,24.32
2018-08-13T09:58:08.248Z,24.28
2018-08-13T09:59:08.726Z,24.23
2018-08-13T10:00:09.251Z,24.19
2018-08-13T10:01:09.686Z,24.16
2018-08-13T10:02:10.166Z,24.13
2018-08-13T10:03:10.644Z,24.10
2018-08-13T10:04:11.123Z,24.08
2018-08-13T10:05:11.600Z,24.05
2018-08-13T10:06:12.078Z,24.02
2018-08-13T10:07:12.560Z,23.99
2018-08-13T10:08:13.043Z,23.96
2018-08-13T10:09:13.521Z,23.92
2018-08-13T10:10:13.998Z,23.89
2018-08-13T10:11:14.473Z,23.86
2018-08-13T10:12:14.955Z,23.82
2018-08-13T10:13:15.429Z,23.79
2018-08-13T10:14:15.909Z,23.75
2018-08-13T10:15:16.388Z,23.72
2018-08-13T10:16:17.066Z,23.68
2018-08-13T10:17:17.345Z,23.64
2018-08-13T10:18:17.823Z,23.62
2018-08-13T10:19:18.300Z,23.59
2018-08-13T10:20:18.777Z,23.55
2018-08-13T10:21:19.256Z,23.51
2018-08-13T10:22:19.737Z,23.48
2018-08-13T10:23:20.212Z,23.47
2018-08-13T10:24:20.689Z,23.44
2018-08-13T10:25:21.171Z,23.42
2018-08-13T10:26:21.646Z,23.39
2018-08-13T10:27:22.124Z,23.37
2018-08-13T10:28:22.602Z,23.34
2018-08-13T10:29:23.079Z,23.31
2018-08-13T10:30:23.562Z,23.28
2018-08-13T10:31:24.038Z,23.27
2018-08-13T10:32:24.515Z,23.25
2018-08-13T10:33:24.991Z,23.23
2018-08-13T10:34:25.488Z,23.21
2018-08-13T10:35:25.949Z,23.19
2018-08-13T10:36:26.423Z,23.17
2018-08-13T10:37:26.957Z,23.15
2018-08-13T10:38:27.378Z,23.13
2018-08-13T10:39:27.858Z,23.11
2018-08-13T10:40:28.339Z,23.08
2018-08-13T10:41:28.812Z,23.07
2018-08-13T10:42:29.290Z,23.04
2018-08-13T10:43:29.814Z,23.03
2018-08-13T10:44:30.242Z,23.00
2018-08-13T10:45:30.727Z,22.98
2018-08-13T10:46:31.199Z,22.96
2018-08-13T10:47:31.679Z,22.94
2018-08-13T10:48:32.154Z,22.92
2018-08-13T10:49:32.672Z,22.90
2018-08-13T10:50:33.111Z,22.88
2018-08-13T10:51:33.586Z,22.85
2018-08-13T10:52:34.063Z,22.82
2018-08-13T10:53:34.541Z,22.80
2018-08-13T10:54:35.016Z,22.78
2018-08-13T10:55:35.496Z,22.76
2018-08-13T10:56:35.971Z,22.74
2018-08-13T10:57:36.448Z,22.72
2018-08-13T10:58:36.924Z,22.71
2018-08-13T10:59:37.408Z,22.69
2018-08-13T11:00:37.879Z,22.68
2018-08-13T11:01:38.355Z,22.72
2018-08-13T11:02:38.834Z,22.80
2018-08-13T11:03:39.312Z,22.86
2018-08-13T11:04:39.787Z,22.88
2018-08-13T11:05:40.265Z,22.88
2018-08-13T11:06:40.741Z,22.88
2018-08-13T11:07:41.221Z,22.87
2018-08-13T11:08:41.695Z,22.87
2018-08-13T11:09:42.170Z,22.86
2018-08-13T11:10:42.650Z,22.85
2018-08-13T11:11:43.125Z,22.83
2018-08-13T11:12:43.606Z,22.82
2018-08-13T11:13:44.079Z,22.81
2018-08-13T11:14:44.555Z,22.81
2018-08-13T11:15:45.033Z,22.79
2018-08-13T11:16:45.509Z,22.78
2018-08-13T11:17:45.992Z,22.78
2018-08-13T11:18:46.466Z,22.76
2018-08-13T11:19:46.940Z,22.75
2018-08-13T11:20:47.415Z,22.75
2018-08-13T11:21:47.924Z,22.73
2018-08-13T11:22:48.369Z,22.71
2018-08-13T11:23:48.855Z,22.69
2018-08-13T11:24:49.322Z,22.67
2018-08-13T11:25:49.799Z,22.65
2018-08-13T11:26:50.277Z,22.63
2018-08-13T11:27:50.752Z,22.61
2018-08-13T11:28:51.228Z,22.59
2018-08-13T11:29:51.707Z,22.56
2018-08-13T11:30:52.182Z,22.56
2018-08-13T11:31:52.658Z,22.55
2018-08-13T11:32:53.135Z,22.55
2018-08-13T11:33:53.609Z,22.55
2018-08-13T11:34:54.139Z,22.56
2018-08-13T11:35:54.565Z,22.57
2018-08-13T11:36:55.039Z,22.58
2018-08-13T11:37:55.516Z,22.57
2018-08-13T11:38:55.993Z,22.57
2018-08-13T11:39:56.469Z,22.56
2018-08-13T11:40:56.944Z,22.56
2018-08-13T11:41:57.423Z,22.55
2018-08-13T11:42:57.900Z,22.54
2018-08-13T11:43:58.377Z,22.52
2018-08-13T11:44:58.852Z,22.50
2018-08-13T11:45:59.328Z,22.49
2018-08-13T11:46:59.805Z,22.49
2018-08-13T11:48:00.280Z,22.47
2018-08-13T11:49:00.756Z,22.45
2018-08-13T11:50:01.232Z,22.44
2018-08-13T11:51:01.715Z,22.43
2018-08-13T11:52:02.190Z,22.42
2018-08-13T11:53:02.662Z,22.41
2018-08-13T11:54:03.140Z,22.39
2018-08-13T11:55:03.614Z,22.38
2018-08-13T11:56:04.091Z,22.37
2018-08-13T11:57:04.566Z,22.35
2018-08-13T11:58:05.045Z,22.33
2018-08-13T11:59:05.519Z,22.31
2018-08-13T12:00:06.045Z,22.28
2018-08-13T12:01:06.546Z,22.25
2018-08-13T12:02:06.976Z,22.23
2018-08-13T12:03:07.424Z,22.21
2018-08-13T12:04:07.904Z,22.18
2018-08-13T12:05:08.380Z,22.15
2018-08-13T12:06:08.853Z,22.13
2018-08-13T12:07:09.330Z,22.11
2018-08-13T12:08:09.805Z,22.09
2018-08-13T12:09:10.283Z,22.06
2018-08-13T12:10:10.757Z,22.04
2018-08-13T12:11:11.232Z,22.00
2018-08-13T12:12:11.709Z,21.98
2018-08-13T12:13:12.184Z,21.97
2018-08-13T12:14:12.677Z,21.95
2018-08-13T12:15:13.136Z,21.94
2018-08-13T12:16:13.614Z,21.92
2018-08-13T12:17:14.088Z,21.91
2018-08-13T12:18:14.565Z,21.88
2018-08-13T12:19:15.040Z,21.86
2018-08-13T12:20:15.514Z,21.85
2018-08-13T12:21:15.993Z,21.84
2018-08-13T12:22:16.474Z,21.83
2018-08-13T12:23:16.944Z,21.83
2018-08-13T12:24:17.417Z,21.82
2018-08-13T12:25:17.897Z,21.81
2018-08-13T12:26:18.375Z,21.80
2018-08-13T12:27:18.846Z,21.80
2018-08-13T12:28:19.324Z,21.79
2018-08-13T12:29:19.801Z,21.78
2018-08-13T12:30:20.272Z,21.77
2018-08-13T12:31:20.749Z,21.75
2018-08-13T12:32:21.224Z,21.74
2018-08-13T12:33:21.706Z,21.72
2018-08-13T12:34:22.174Z,21.71
2018-08-13T12:35:22.651Z,21.71
2018-08-13T12:36:23.127Z,21.70
2018-08-13T12:37:23.601Z,21.71
2018-08-13T12:38:24.082Z,21.70
2018-08-13T12:39:24.554Z,21.69
2018-08-13T12:40:25.033Z,21.68
2018-08-13T12:41:25.504Z,21.66
2018-08-13T12:42:25.981Z,21.66
2018-08-13T12:43:26.455Z,21.65
2018-08-13T12:44:26.932Z,21.65
2018-08-13T12:45:27.408Z,21.65
2018-08-13T12:46:27.885Z,21.64
2018-08-13T12:47:28.359Z,21.63
2018-08-13T12:48:28.834Z,21.63
2018-08-13T12:49:29.317Z,21.63
2018-08-13T12:50:29.784Z,21.63
2018-08-13T12:51:30.260Z,21.64
2018-08-13T12:52:30.736Z,21.64
2018-08-13T12:53:31.211Z,21.65
2018-08-13T12:54:31.687Z,21.65
2018-08-13T12:55:32.163Z,21.66
2018-08-13T12:56:32.637Z,21.65
2018-08-13T12:57:33.117Z,21.65
2018-08-13T12:58:33.589Z,21.63
2018-08-13T12:59:34.065Z,21.62
2018-08-13T13:00:34.540Z,21.61